createdAt,value
2018-10-03T00:00:09.855Z,10.2
2018-10-03T00:01:16.787Z,10.2
2018-10-03T00:02:24.013Z,10.2
2018-10-03T00:03:30.957Z,10.2
2018-10-03T00:04:38.196Z,10.2
2018-10-03T00:05:45.411Z,10.2
2018-10-03T00:06:52.628Z,10.2
2018-10-03T00:07:59.838Z,10.2
2018-10-03T00:09:07.051Z,10.2
2018-10-03T00:10:14.275Z,10.2
2018-10-03T00:11:21.252Z,10.2
2018-10-03T00:12:28.204Z,10.2
2018-10-03T00:13:35.437Z,10.3
2018-10-03T00:14:42.661Z,10.2
2018-10-03T00:15:49.881Z,10.2
2018-10-03T00:16:57.098Z,10.2
2018-10-03T00:18:04.316Z,10.2
2018-10-03T00:19:11.537Z,10.2
2018-10-03T00:20:18.749Z,10.3
2018-10-03T00:21:25.688Z,10.3
2018-10-03T00:22:32.902Z,10.2
2018-10-03T00:23:40.132Z,10.3
2018-10-03T00:24:47.361Z,10.3
2018-10-03T00:25:54.576Z,10.3
2018-10-03T00:27:01.811Z,10.3
2018-10-03T00:28:08.475Z,10.2
2018-10-03T00:29:15.918Z,10.3
2018-10-03T00:30:23.137Z,10.3
2018-10-03T00:31:30.584Z,10.3
2018-10-03T00:32:37.793Z,10.3
2018-10-03T00:33:45.228Z,10.3
2018-10-03T00:34:52.442Z,10.3
2018-10-03T00:35:59.690Z,10.3
2018-10-03T00:37:06.638Z,10.3
2018-10-03T00:38:13.857Z,10.3
2018-10-03T00:39:21.072Z,10.3
2018-10-03T00:40:28.301Z,10.3
2018-10-03T00:41:35.518Z,10.3
2018-10-03T00:42:42.475Z,10.3
2018-10-03T00:43:49.421Z,10.3
2018-10-03T00:44:56.636Z,10.3
2018-10-03T00:46:03.860Z,10.4
2018-10-03T00:47:11.069Z,10.3
2018-10-03T00:48:18.285Z,10.3
2018-10-03T00:49:25.509Z,10.4
2018-10-03T00:50:32.730Z,10.3
2018-10-03T00:51:39.939Z,10.3
2018-10-03T00:52:47.147Z,10.3
2018-10-03T00:53:54.363Z,10.3
2018-10-03T00:55:01.595Z,10.3
2018-10-03T00:56:08.856Z,10.3
2018-10-03T00:57:16.071Z,10.3
2018-10-03T00:58:23.289Z,10.4
2018-10-03T00:59:30.514Z,10.3
2018-10-03T01:00:37.943Z,10.4
2018-10-03T01:01:45.159Z,10.4
2018-10-03T01:02:52.375Z,10.4
2018-10-03T01:03:59.594Z,10.4
2018-10-03T01:05:06.533Z,10.4
2018-10-03T01:06:13.759Z,10.4
2018-10-03T01:07:20.973Z,10.4
2018-10-03T01:08:28.183Z,10.4
2018-10-03T01:09:35.406Z,10.4
2018-10-03T01:10:42.623Z,10.4
2018-10-03T01:11:49.834Z,10.4
2018-10-03T01:12:56.792Z,10.4
2018-10-03T01:14:04.011Z,10.5
2018-10-03T01:15:11.237Z,10.5
2018-10-03T01:16:18.457Z,10.4
2018-10-03T01:17:25.669Z,10.5
2018-10-03T01:18:32.880Z,10.5
2018-10-03T01:19:40.094Z,10.5
2018-10-03T01:20:47.300Z,10.5
2018-10-03T01:21:54.504Z,10.5
2018-10-03T01:23:01.732Z,10.5
2018-10-03T01:24:08.951Z,10.6
2018-10-03T01:25:16.175Z,10.5
2018-10-03T01:26:22.845Z,10.5
2018-10-03T01:27:30.060Z,10.5
2018-10-03T01:28:37.282Z,10.5
2018-10-03T01:29:44.481Z,10.5
2018-10-03T01:30:51.699Z,10.6
2018-10-03T01:31:58.930Z,10.5
2018-10-03T01:33:06.148Z,10.6
2018-10-03T01:34:13.101Z,10.6
2018-10-03T01:35:20.324Z,10.6
2018-10-03T01:36:27.589Z,10.6
2018-10-03T01:37:34.524Z,10.5
2018-10-03T01:38:41.697Z,10.6
2018-10-03T01:39:48.920Z,10.5
2018-10-03T01:40:56.157Z,10.6
2018-10-03T01:42:03.365Z,10.5
2018-10-03T01:43:10.577Z,10.6
2018-10-03T01:44:17.800Z,10.6
2018-10-03T01:45:25.018Z,10.6
2018-10-03T01:46:32.242Z,10.6
2018-10-03T01:47:39.472Z,10.6
2018-10-03T01:48:46.682Z,10.6
2018-10-03T01:49:53.641Z,10.6
2018-10-03T01:51:00.871Z,10.6
2018-10-03T01:52:08.088Z,10.6
2018-10-03T01:53:15.308Z,10.6
2018-10-03T01:54:22.530Z,10.6
2018-10-03T01:55:29.758Z,10.6
2018-10-03T01:56:36.982Z,10.6
2018-10-03T01:57:43.939Z,10.6
2018-10-03T01:58:50.857Z,10.6
2018-10-03T01:59:58.074Z,10.6
2018-10-03T02:01:05.025Z,10.6
2018-10-03T02:02:12.274Z,10.6
2018-10-03T02:03:19.504Z,10.7
2018-10-03T02:04:26.727Z,10.7
2018-10-03T02:05:33.938Z,10.7
2018-10-03T02:06:41.164Z,10.7
2018-10-03T02:07:48.386Z,10.6
2018-10-03T02:08:55.600Z,10.7
2018-10-03T02:10:02.834Z,10.7
2018-10-03T02:11:10.070Z,10.7
2018-10-03T02:12:17.283Z,10.7
2018-10-03T02:13:24.512Z,10.7
2018-10-03T02:14:31.467Z,10.7
2018-10-03T02:15:38.414Z,10.7
2018-10-03T02:16:45.579Z,10.7
2018-10-03T02:17:52.510Z,10.7
2018-10-03T02:18:59.959Z,10.7
2018-10-03T02:20:07.169Z,10.7
2018-10-03T02:21:14.383Z,10.7
2018-10-03T02:22:21.599Z,10.7
2018-10-03T02:23:28.815Z,10.7
2018-10-03T02:24:36.037Z,10.8
2018-10-03T02:25:42.989Z,10.8
2018-10-03T02:26:49.927Z,10.7
2018-10-03T02:27:57.144Z,10.7
2018-10-03T02:29:04.358Z,10.8
2018-10-03T02:30:11.591Z,10.7
2018-10-03T02:31:18.815Z,10.8
2018-10-03T02:32:26.024Z,10.8
2018-10-03T02:33:33.236Z,10.8
2018-10-03T02:34:40.446Z,10.8
2018-10-03T02:35:47.676Z,10.8
2018-10-03T02:36:54.913Z,10.8
2018-10-03T02:38:02.125Z,10.8
2018-10-03T02:39:09.357Z,10.8
2018-10-03T02:40:16.568Z,10.8
2018-10-03T02:41:23.808Z,10.8
2018-10-03T02:42:31.029Z,10.8
2018-10-03T02:43:38.250Z,10.8
2018-10-03T02:44:45.462Z,10.8
2018-10-03T02:45:52.398Z,10.7
2018-10-03T02:46:59.623Z,10.8
2018-10-03T02:48:06.567Z,10.8
2018-10-03T02:49:13.503Z,10.7
2018-10-03T02:50:20.719Z,10.8
2018-10-03T02:51:27.943Z,10.8
2018-10-03T02:52:35.154Z,10.8
2018-10-03T02:53:42.364Z,10.8
2018-10-03T02:54:49.603Z,10.8
2018-10-03T02:55:56.829Z,10.8
2018-10-03T02:57:04.036Z,10.8
2018-10-03T02:58:11.249Z,10.8
2018-10-03T02:59:18.461Z,10.8
2018-10-03T03:00:25.684Z,10.8
2018-10-03T03:01:32.735Z,10.8
2018-10-03T03:02:39.706Z,10.8
2018-10-03T03:03:46.921Z,10.8
2018-10-03T03:04:53.868Z,10.8
2018-10-03T03:06:01.076Z,10.8
2018-10-03T03:07:08.022Z,10.8
2018-10-03T03:08:15.254Z,10.8
2018-10-03T03:09:22.488Z,10.8
2018-10-03T03:10:29.694Z,10.8
2018-10-03T03:11:36.910Z,10.8
2018-10-03T03:12:44.133Z,10.8
2018-10-03T03:13:51.345Z,10.8
2018-10-03T03:14:58.558Z,10.8
2018-10-03T03:16:05.773Z,10.7
2018-10-03T03:17:13.006Z,10.8
2018-10-03T03:18:19.942Z,10.8
2018-10-03T03:19:27.185Z,10.7
2018-10-03T03:20:34.393Z,10.8
2018-10-03T03:21:41.613Z,10.7
2018-10-03T03:22:48.820Z,10.7
2018-10-03T03:23:56.037Z,10.8
2018-10-03T03:25:03.251Z,10.7
2018-10-03T03:26:10.456Z,10.7
2018-10-03T03:27:17.692Z,10.7
2018-10-03T03:28:24.905Z,10.8
2018-10-03T03:29:32.129Z,10.8
2018-10-03T03:30:39.349Z,10.8
2018-10-03T03:31:46.567Z,10.8
2018-10-03T03:32:53.780Z,10.8
2018-10-03T03:34:00.990Z,10.8
2018-10-03T03:35:08.220Z,10.8
2018-10-03T03:36:15.440Z,10.8
2018-10-03T03:37:22.658Z,10.8
2018-10-03T03:38:29.604Z,10.8
2018-10-03T03:39:36.832Z,10.8
2018-10-03T03:40:43.505Z,10.8
2018-10-03T03:41:50.473Z,10.8
2018-10-03T03:42:57.424Z,10.8
2018-10-03T03:44:04.666Z,10.8
2018-10-03T03:45:11.612Z,10.8
2018-10-03T03:46:18.840Z,10.8
2018-10-03T03:47:26.053Z,10.8
2018-10-03T03:48:33.272Z,10.8
2018-10-03T03:49:40.481Z,10.8
2018-10-03T03:50:47.700Z,10.8
2018-10-03T03:51:54.912Z,10.8
2018-10-03T03:53:02.122Z,10.8
2018-10-03T03:54:09.351Z,10.8
2018-10-03T03:55:16.326Z,10.8
2018-10-03T03:56:23.532Z,10.9
2018-10-03T03:57:30.763Z,10.8
2018-10-03T03:58:37.974Z,10.8
2018-10-03T03:59:45.209Z,10.8
2018-10-03T04:00:52.148Z,10.8
2018-10-03T04:01:59.381Z,10.8
2018-10-03T04:03:06.607Z,10.8
2018-10-03T04:04:13.842Z,10.8
2018-10-03T04:05:21.064Z,10.8
2018-10-03T04:06:28.276Z,10.8
2018-10-03T04:07:35.490Z,10.7
2018-10-03T04:08:42.707Z,10.7
2018-10-03T04:09:49.916Z,10.7
2018-10-03T04:10:57.153Z,10.8
2018-10-03T04:12:04.376Z,10.7
2018-10-03T04:13:11.613Z,10.7
2018-10-03T04:14:18.838Z,10.8
2018-10-03T04:15:26.067Z,10.8
2018-10-03T04:16:33.289Z,10.8
2018-10-03T04:17:40.501Z,10.8
2018-10-03T04:18:47.717Z,10.8
2018-10-03T04:19:54.939Z,10.8
2018-10-03T04:21:02.150Z,10.7
2018-10-03T04:22:09.361Z,10.8
2018-10-03T04:23:16.571Z,10.8
2018-10-03T04:24:23.799Z,10.8
2018-10-03T04:25:31.025Z,10.8
2018-10-03T04:26:38.251Z,10.8
2018-10-03T04:27:45.469Z,10.8
2018-10-03T04:28:52.679Z,10.8
2018-10-03T04:29:59.897Z,10.8
2018-10-03T04:31:07.121Z,10.8
2018-10-03T04:32:14.082Z,10.8
2018-10-03T04:33:21.303Z,10.8
2018-10-03T04:34:28.260Z,10.8
2018-10-03T04:35:35.560Z,10.7
2018-10-03T04:36:42.651Z,10.7
2018-10-03T04:37:49.596Z,10.7
2018-10-03T04:38:56.539Z,10.7
2018-10-03T04:40:03.764Z,10.7
2018-10-03T04:41:10.975Z,10.8
2018-10-03T04:42:18.365Z,10.8
2018-10-03T04:43:25.841Z,10.8
2018-10-03T04:44:33.054Z,10.8
2018-10-03T04:45:40.270Z,10.8
2018-10-03T04:46:47.486Z,10.8
2018-10-03T04:47:54.710Z,10.8
2018-10-03T04:49:02.020Z,10.8
2018-10-03T04:50:09.486Z,10.8
2018-10-03T04:51:16.709Z,10.8
2018-10-03T04:52:23.648Z,10.8
2018-10-03T04:53:30.883Z,10.8
2018-10-03T04:54:38.107Z,10.7
2018-10-03T04:55:45.329Z,10.8
2018-10-03T04:56:52.268Z,10.7
2018-10-03T04:57:59.499Z,10.8
2018-10-03T04:59:06.732Z,10.8
2018-10-03T05:00:13.952Z,10.8
2018-10-03T05:01:21.174Z,10.8
2018-10-03T05:02:28.385Z,10.8
2018-10-03T05:03:35.327Z,10.8
2018-10-03T05:04:42.547Z,10.7
2018-10-03T05:05:49.490Z,10.7
2018-10-03T05:06:56.468Z,10.7
2018-10-03T05:08:03.737Z,10.8
2018-10-03T05:09:10.949Z,10.7
2018-10-03T05:10:18.157Z,10.7
2018-10-03T05:11:25.051Z,10.7
2018-10-03T05:12:32.530Z,10.7
2018-10-03T05:13:39.746Z,10.7
2018-10-03T05:14:46.970Z,10.7
2018-10-03T05:15:54.179Z,10.7
2018-10-03T05:17:01.421Z,10.7
2018-10-03T05:18:08.639Z,10.7
2018-10-03T05:19:15.863Z,10.7
2018-10-03T05:20:23.087Z,10.7
2018-10-03T05:21:30.296Z,10.7
2018-10-03T05:22:37.257Z,10.7
2018-10-03T05:23:44.481Z,10.7
2018-10-03T05:24:51.682Z,10.7
2018-10-03T05:25:58.614Z,10.7
2018-10-03T05:27:05.818Z,10.7
2018-10-03T05:28:13.051Z,10.7
2018-10-03T05:29:20.013Z,10.7
2018-10-03T05:30:27.264Z,10.7
2018-10-03T05:31:34.491Z,10.7
2018-10-03T05:32:41.701Z,10.7
2018-10-03T05:33:48.947Z,10.7
2018-10-03T05:34:55.886Z,10.7
2018-10-03T05:36:02.823Z,10.7
2018-10-03T05:37:10.043Z,10.7
2018-10-03T05:38:17.275Z,10.7
2018-10-03T05:39:24.511Z,10.7
2018-10-03T05:40:31.769Z,10.7
2018-10-03T05:41:38.702Z,10.7
2018-10-03T05:42:45.904Z,10.7
2018-10-03T05:43:53.109Z,10.7
2018-10-03T05:45:00.322Z,10.7
2018-10-03T05:46:07.553Z,10.7
2018-10-03T05:47:14.783Z,10.7
2018-10-03T05:48:22.111Z,10.7
2018-10-03T05:49:29.149Z,10.7
2018-10-03T05:50:36.408Z,10.8
2018-10-03T05:51:43.653Z,10.7
2018-10-03T05:52:50.872Z,10.7
2018-10-03T05:53:58.089Z,10.7
2018-10-03T05:55:05.308Z,10.8
2018-10-03T05:56:12.529Z,10.8
2018-10-03T05:57:19.753Z,10.8
2018-10-03T05:58:26.982Z,10.8
2018-10-03T05:59:34.193Z,10.8
2018-10-03T06:00:41.436Z,10.9
2018-10-03T06:01:48.649Z,10.8
2018-10-03T06:02:56.048Z,10.8
2018-10-03T06:04:03.590Z,10.8
2018-10-03T06:05:10.809Z,10.8
2018-10-03T06:06:18.028Z,10.8
2018-10-03T06:07:25.244Z,10.8
2018-10-03T06:08:32.452Z,10.8
2018-10-03T06:09:39.703Z,10.8
2018-10-03T06:10:46.929Z,10.8
2018-10-03T06:11:53.884Z,10.8
2018-10-03T06:13:00.867Z,10.8
2018-10-03T06:14:07.839Z,10.8
2018-10-03T06:15:15.062Z,10.9
2018-10-03T06:16:22.305Z,10.9
2018-10-03T06:17:29.557Z,10.9
2018-10-03T06:18:36.967Z,10.9
2018-10-03T06:19:44.663Z,10.9
2018-10-03T06:20:51.732Z,11
2018-10-03T06:21:58.411Z,11
2018-10-03T06:23:05.619Z,11
2018-10-03T06:24:12.550Z,11
2018-10-03T06:25:19.506Z,11
2018-10-03T06:26:26.165Z,11
2018-10-03T06:27:33.131Z,11
2018-10-03T06:28:39.810Z,11
2018-10-03T06:29:47.041Z,11.1
2018-10-03T06:30:54.009Z,11
2018-10-03T06:32:00.990Z,11.1
2018-10-03T06:33:07.924Z,11.1
2018-10-03T06:34:15.163Z,11.1
2018-10-03T06:35:22.394Z,11.1
2018-10-03T06:36:29.613Z,11.1
2018-10-03T06:37:36.845Z,11.1
2018-10-03T06:38:44.068Z,11.2
2018-10-03T06:39:51.286Z,11.2
2018-10-03T06:40:58.225Z,11.2
2018-10-03T06:42:05.440Z,11.2
2018-10-03T06:43:12.655Z,11.2
2018-10-03T06:44:19.908Z,11.2
2018-10-03T06:45:26.886Z,11.2
2018-10-03T06:46:34.230Z,11.2
2018-10-03T06:47:41.449Z,11.2
2018-10-03T06:48:48.900Z,11.2
2018-10-03T06:49:56.118Z,11.2
2018-10-03T06:51:03.366Z,11.2
2018-10-03T06:52:10.591Z,11.3
2018-10-03T06:53:17.809Z,11.2
2018-10-03T06:54:25.022Z,11.3
2018-10-03T06:55:32.246Z,11.3
2018-10-03T06:56:39.477Z,11.3
2018-10-03T06:57:46.694Z,11.3
2018-10-03T06:58:53.922Z,11.3
2018-10-03T07:00:01.197Z,11.3
2018-10-03T07:01:08.418Z,11.3
2018-10-03T07:02:15.654Z,11.4
2018-10-03T07:03:22.881Z,11.5
2018-10-03T07:04:30.096Z,11.5
2018-10-03T07:05:37.373Z,11.5
2018-10-03T07:06:44.593Z,11.6
2018-10-03T07:07:51.807Z,11.6
2018-10-03T07:08:58.759Z,11.6
2018-10-03T07:10:05.978Z,11.6
2018-10-03T07:11:12.926Z,11.6
2018-10-03T07:12:20.158Z,11.6
2018-10-03T07:13:27.381Z,11.7
2018-10-03T07:14:34.324Z,11.7
2018-10-03T07:15:41.562Z,11.7
2018-10-03T07:16:48.783Z,11.7
2018-10-03T07:17:56.026Z,11.8
2018-10-03T07:19:03.270Z,11.9
2018-10-03T07:20:10.656Z,11.9
2018-10-03T07:21:18.023Z,12
2018-10-03T07:22:25.255Z,12.1
2018-10-03T07:23:32.478Z,12.2
2018-10-03T07:24:39.706Z,12.2
2018-10-03T07:25:46.927Z,12.3
2018-10-03T07:26:54.167Z,12.3
2018-10-03T07:28:01.375Z,12.3
2018-10-03T07:29:08.669Z,12.3
2018-10-03T07:30:15.352Z,12.3
2018-10-03T07:31:22.291Z,12.3
2018-10-03T07:32:29.311Z,12.2
2018-10-03T07:33:36.598Z,12.3
2018-10-03T07:34:43.816Z,12.3
2018-10-03T07:35:50.779Z,12.3
2018-10-03T07:36:58.006Z,12.4
2018-10-03T07:38:05.233Z,12.5
2018-10-03T07:39:12.467Z,12.5
2018-10-03T07:40:19.722Z,12.5
2018-10-03T07:41:26.952Z,12.6
2018-10-03T07:42:34.164Z,12.6
2018-10-03T07:43:41.380Z,12.7
2018-10-03T07:44:48.600Z,12.7
2018-10-03T07:45:55.820Z,12.7
2018-10-03T07:47:03.047Z,12.7
2018-10-03T07:48:10.485Z,12.9
2018-10-03T07:49:18.000Z,12.9
2018-10-03T07:50:24.955Z,13
2018-10-03T07:51:32.186Z,13
2018-10-03T07:52:38.861Z,13.1
2018-10-03T07:53:46.090Z,13.2
2018-10-03T07:54:53.329Z,13.2
2018-10-03T07:56:00.574Z,13.3
2018-10-03T07:57:07.848Z,13.3
2018-10-03T07:58:15.073Z,13.3
2018-10-03T07:59:22.016Z,13.3
2018-10-03T08:00:29.312Z,13.3
2018-10-03T08:01:36.556Z,13.3
2018-10-03T08:02:43.792Z,13.4
2018-10-03T08:03:51.023Z,13.5
2018-10-03T08:04:57.979Z,13.3
2018-10-03T08:06:04.941Z,13.3
2018-10-03T08:07:12.197Z,13.3
2018-10-03T08:08:19.461Z,13.3
2018-10-03T08:09:26.429Z,13.3
2018-10-03T08:10:33.683Z,13.2
2018-10-03T08:11:40.915Z,13.2
2018-10-03T08:12:48.149Z,13.2
2018-10-03T08:13:54.827Z,13.2
2018-10-03T08:15:02.083Z,13.3
2018-10-03T08:16:09.304Z,13.4
2018-10-03T08:17:16.609Z,13.6
2018-10-03T08:18:23.948Z,13.6
2018-10-03T08:19:31.171Z,13.5
2018-10-03T08:20:38.392Z,13.5
2018-10-03T08:21:45.688Z,13.5
2018-10-03T08:22:53.172Z,13.4
2018-10-03T08:24:00.425Z,13.4
2018-10-03T08:25:07.653Z,13.4
2018-10-03T08:26:14.894Z,13.5
2018-10-03T08:27:22.132Z,13.5
2018-10-03T08:28:29.370Z,13.5
2018-10-03T08:29:36.622Z,13.4
2018-10-03T08:30:43.858Z,13.5
2018-10-03T08:31:51.152Z,13.5
2018-10-03T08:32:58.806Z,13.5
2018-10-03T08:34:05.994Z,13.6
2018-10-03T08:35:13.228Z,13.5
2018-10-03T08:36:20.453Z,13.6
2018-10-03T08:37:27.680Z,13.7
2018-10-03T08:38:34.652Z,13.8
2018-10-03T08:39:41.636Z,13.8
2018-10-03T08:40:48.871Z,13.9
2018-10-03T08:41:56.127Z,13.9
2018-10-03T08:43:03.097Z,14
2018-10-03T08:44:10.346Z,14.1
2018-10-03T08:45:17.567Z,14
2018-10-03T08:46:24.807Z,14
2018-10-03T08:47:32.024Z,13.9
2018-10-03T08:48:39.274Z,13.9
2018-10-03T08:50:59.485Z,14
2018-10-03T08:52:06.741Z,14.1
2018-10-03T08:53:13.963Z,14.1
2018-10-03T08:54:21.201Z,14.1
2018-10-03T08:55:28.156Z,14.2
2018-10-03T08:56:35.402Z,14.2
2018-10-03T08:57:42.622Z,14.1
2018-10-03T08:58:49.852Z,14.1
2018-10-03T08:59:57.092Z,14
2018-10-03T09:01:04.333Z,14
2018-10-03T09:02:11.571Z,14
2018-10-03T09:03:18.803Z,14.2
2018-10-03T09:04:26.052Z,14.4
2018-10-03T09:05:33.005Z,14.5
2018-10-03T09:06:40.236Z,14.6
2018-10-03T09:07:47.491Z,14.7
2018-10-03T09:08:54.723Z,14.8
2018-10-03T09:10:01.970Z,14.8
2018-10-03T09:11:09.219Z,14.7
2018-10-03T09:12:16.454Z,14.8
2018-10-03T09:13:23.692Z,14.8
2018-10-03T09:14:30.941Z,14.8
2018-10-03T09:15:38.182Z,15
2018-10-03T09:16:45.425Z,14.9
2018-10-03T09:17:52.685Z,14.9
2018-10-03T09:18:59.660Z,15
2018-10-03T09:20:06.901Z,14.8
2018-10-03T09:21:13.972Z,14.9
2018-10-03T09:22:21.345Z,15.1
2018-10-03T09:23:28.578Z,15.2
2018-10-03T09:24:35.546Z,15
2018-10-03T09:25:42.792Z,14.7
2018-10-03T09:26:50.017Z,14.6
2018-10-03T09:27:57.239Z,14.5
2018-10-03T09:29:04.204Z,14.6
2018-10-03T09:30:11.421Z,14.6
2018-10-03T09:31:18.647Z,14.6
2018-10-03T09:32:25.903Z,14.5
2018-10-03T09:33:32.855Z,14.5
2018-10-03T09:34:40.120Z,14.5
2018-10-03T09:35:47.363Z,14.4
2018-10-03T09:36:54.328Z,14.5
2018-10-03T09:38:01.575Z,14.5
2018-10-03T09:39:08.812Z,14.4
2018-10-03T09:40:16.064Z,14.4
2018-10-03T09:41:23.299Z,14.4
2018-10-03T09:42:30.259Z,14.4
2018-10-03T09:43:37.493Z,14.4
2018-10-03T09:44:44.723Z,14.3
2018-10-03T09:46:06.319Z,14.3
2018-10-03T09:47:13.270Z,14.2
2018-10-03T09:48:20.486Z,14.1
2018-10-03T09:49:27.734Z,14.1
2018-10-03T09:50:34.968Z,14
2018-10-03T09:51:42.234Z,14
2018-10-03T09:52:49.209Z,14
2018-10-03T09:53:56.425Z,14.1
2018-10-03T09:55:03.659Z,14.1
2018-10-03T09:56:10.886Z,14
2018-10-03T09:57:18.122Z,14.1
2018-10-03T09:58:25.382Z,14.2
2018-10-03T09:59:32.611Z,14.2
2018-10-03T10:00:39.893Z,14.3
2018-10-03T10:01:47.224Z,14.3
2018-10-03T10:02:54.463Z,14.3
2018-10-03T10:04:01.708Z,14.4
2018-10-03T10:05:08.956Z,14.5
2018-10-03T10:06:16.191Z,14.4
2018-10-03T10:07:23.413Z,14.5
2018-10-03T10:08:30.633Z,14.5
2018-10-03T10:09:37.608Z,14.5
2018-10-03T10:10:44.835Z,14.5
2018-10-03T10:11:51.805Z,14.5
2018-10-03T10:12:58.757Z,14.4
2018-10-03T10:14:05.993Z,14.4
2018-10-03T10:15:13.234Z,14.5
2018-10-03T10:16:20.497Z,14.5
2018-10-03T10:17:27.758Z,14.4
2018-10-03T10:18:34.996Z,14.5
2018-10-03T10:19:42.227Z,14.4
2018-10-03T10:20:49.584Z,14.4
2018-10-03T10:21:57.034Z,14.4
2018-10-03T10:23:04.265Z,14.4
2018-10-03T10:24:11.214Z,14.4
2018-10-03T10:25:18.459Z,14.4
2018-10-03T10:26:25.692Z,14.4
2018-10-03T10:27:32.928Z,14.5
2018-10-03T10:28:39.884Z,14.5
2018-10-03T10:29:47.129Z,14.5
2018-10-03T10:30:54.082Z,14.5
2018-10-03T10:32:01.316Z,14.5
2018-10-03T10:33:08.856Z,14.6
2018-10-03T10:34:16.440Z,14.6
2018-10-03T10:37:42.785Z,14.6
2018-10-03T10:38:50.283Z,14.6
2018-10-03T10:39:57.601Z,14.6
2018-10-03T10:41:05.132Z,14.6
2018-10-03T10:42:12.655Z,14.5
2018-10-03T10:43:20.057Z,14.4
2018-10-03T10:44:27.447Z,14.3
2018-10-03T10:45:34.423Z,14.3
2018-10-03T10:46:41.802Z,14.2
2018-10-03T10:47:49.224Z,14.3
2018-10-03T10:48:56.687Z,14.2
2018-10-03T10:50:03.991Z,14.4
2018-10-03T10:51:11.454Z,14.4
2018-10-03T10:52:18.702Z,14.3
2018-10-03T10:53:25.941Z,14.3
2018-10-03T10:54:33.218Z,14.3
2018-10-03T10:55:40.464Z,14.3
2018-10-03T10:56:47.708Z,14.2
2018-10-03T10:57:54.651Z,14.1
2018-10-03T10:59:01.906Z,14.1
2018-10-03T11:00:09.360Z,14.1
2018-10-03T11:01:16.611Z,14.2
2018-10-03T11:02:24.087Z,14.1
2018-10-03T11:03:31.045Z,14
2018-10-03T11:04:38.254Z,13.9
2018-10-03T11:05:45.501Z,13.9
2018-10-03T11:06:52.758Z,13.9
2018-10-03T11:07:59.994Z,14
2018-10-03T11:09:07.455Z,14
2018-10-03T11:10:14.711Z,14.1
2018-10-03T11:11:21.958Z,14.2
2018-10-03T11:12:28.919Z,14.3
2018-10-03T11:13:36.146Z,14.4
2018-10-03T11:14:43.371Z,14.4
2018-10-03T11:15:50.617Z,14.4
2018-10-03T11:16:58.006Z,14.4
2018-10-03T11:18:05.625Z,14.5
2018-10-03T11:19:12.884Z,14.6
2018-10-03T11:20:20.112Z,14.6
2018-10-03T11:21:27.072Z,14.6
2018-10-03T11:22:34.527Z,14.6
2018-10-03T11:23:41.829Z,14.7
2018-10-03T11:24:50.286Z,14.9
2018-10-03T11:25:58.328Z,15.1
2018-10-03T11:27:05.573Z,15.4
2018-10-03T11:28:12.818Z,15.5
2018-10-03T11:29:19.793Z,15.3
2018-10-03T11:30:27.049Z,15.4
2018-10-03T11:31:34.273Z,15.4
2018-10-03T11:32:41.240Z,15.6
2018-10-03T11:33:48.706Z,15.7
2018-10-03T11:34:55.665Z,15.9
2018-10-03T11:36:03.130Z,16.1
2018-10-03T11:37:10.357Z,16.2
2018-10-03T11:38:17.897Z,16.4
2018-10-03T11:39:25.250Z,16.4
2018-10-03T11:40:32.243Z,16.6
2018-10-03T11:41:39.501Z,16.6
2018-10-03T11:42:46.947Z,16.8
2018-10-03T11:43:54.258Z,17
2018-10-03T11:45:01.832Z,17.1
2018-10-03T11:46:09.058Z,16.9
2018-10-03T11:47:16.244Z,16.9
2018-10-03T11:48:23.498Z,16.8
2018-10-03T11:49:30.968Z,16.6
2018-10-03T11:50:38.444Z,16.5
2018-10-03T11:51:46.142Z,16.2
2018-10-03T11:52:53.380Z,16.1
2018-10-03T11:54:00.652Z,16
2018-10-03T11:55:07.902Z,15.9
2018-10-03T11:56:15.144Z,15.9
2018-10-03T11:57:22.126Z,15.9
2018-10-03T11:58:29.385Z,16
2018-10-03T11:59:36.850Z,16
2018-10-03T12:00:44.674Z,15.9
2018-10-03T12:01:52.279Z,15.8
2018-10-03T12:02:59.951Z,15.7
2018-10-03T12:04:07.673Z,15.6
2018-10-03T12:05:14.950Z,15.4
2018-10-03T12:06:22.241Z,15.5
2018-10-03T12:07:29.796Z,15.8
2018-10-03T22:00:05.758Z,5.4
2018-10-03T22:01:13.201Z,5.3
2018-10-03T22:02:20.146Z,5.3
2018-10-03T22:03:27.117Z,5.3
2018-10-03T22:04:34.363Z,5.3
2018-10-03T22:05:41.580Z,5.3
2018-10-03T22:06:48.809Z,5.2
2018-10-03T22:07:56.040Z,5.2
2018-10-03T22:09:03.264Z,5.2
2018-10-03T22:10:10.486Z,5.2
2018-10-03T22:11:17.741Z,5.1
2018-10-03T22:12:25.194Z,5.2
2018-10-03T22:13:32.419Z,5.3
2018-10-03T22:14:39.653Z,5.2
2018-10-03T22:15:46.870Z,5.2
2018-10-03T22:16:54.109Z,5.1
2018-10-03T22:18:01.338Z,5.1
2018-10-03T22:19:08.565Z,5
2018-10-03T22:20:15.793Z,5
2018-10-03T22:21:23.019Z,5
2018-10-03T22:22:30.313Z,5
2018-10-03T22:23:37.581Z,5
2018-10-03T22:24:44.797Z,5
2018-10-03T22:27:04.731Z,4.9
2018-10-03T22:28:12.168Z,4.9
2018-10-03T22:29:19.387Z,4.9
2018-10-03T22:30:26.600Z,4.9
2018-10-03T22:31:33.831Z,4.9
2018-10-03T22:32:41.079Z,4.8
2018-10-03T22:33:48.303Z,4.8
2018-10-03T22:34:55.509Z,4.9
2018-10-03T22:36:02.450Z,4.8
2018-10-03T22:37:09.892Z,4.8
2018-10-03T22:38:16.832Z,4.8
2018-10-03T22:39:24.278Z,4.7
2018-10-03T22:40:31.495Z,4.7
2018-10-03T22:41:38.743Z,4.7
2018-10-03T22:42:45.965Z,4.7
2018-10-03T22:43:52.916Z,4.7
2018-10-03T22:45:00.159Z,4.7
2018-10-03T22:46:07.386Z,4.7
2018-10-03T22:47:14.623Z,4.7
2018-10-03T22:48:21.851Z,4.7
2018-10-03T22:49:29.083Z,4.7
2018-10-03T22:50:36.324Z,4.7
2018-10-03T22:51:43.591Z,4.7
2018-10-03T22:52:51.036Z,4.7
2018-10-03T22:53:58.246Z,4.7
2018-10-03T22:55:05.711Z,4.6
2018-10-03T22:56:12.988Z,4.7
2018-10-03T22:57:20.153Z,4.7
2018-10-03T22:58:27.103Z,4.6
2018-10-03T22:59:34.329Z,4.6
2018-10-03T23:00:41.564Z,4.5
2018-10-03T23:01:48.806Z,4.5
2018-10-03T23:02:56.047Z,4.4
2018-10-03T23:04:03.482Z,4.4
2018-10-03T23:05:10.700Z,4.4
2018-10-03T23:06:18.308Z,4.4
2018-10-03T23:07:25.523Z,4.4
2018-10-03T23:08:32.398Z,4.5
2018-10-03T23:09:39.623Z,4.4
2018-10-03T23:10:46.860Z,4.5
2018-10-03T23:11:54.085Z,4.5
2018-10-03T23:13:01.309Z,4.5
2018-10-03T23:14:08.544Z,4.5
2018-10-03T23:15:15.996Z,4.4
2018-10-03T23:16:23.210Z,4.4
2018-10-03T23:17:30.651Z,4.4
2018-10-03T23:18:37.867Z,4.3
2018-10-03T23:19:45.023Z,4.3
2018-10-03T23:20:52.247Z,4.3
2018-10-03T23:21:59.469Z,4.3
2018-10-03T23:23:06.679Z,4.4
2018-10-03T23:24:13.923Z,4.4
2018-10-03T23:25:20.885Z,4.4
2018-10-03T23:26:28.125Z,4.3
2018-10-03T23:27:35.361Z,4.3
2018-10-03T23:28:42.610Z,4.3
2018-10-03T23:29:49.841Z,4.3
2018-10-03T23:30:57.053Z,4.3
2018-10-03T23:32:04.279Z,4.3
2018-10-03T23:33:11.727Z,4.3
2018-10-03T23:34:18.942Z,4.2
2018-10-03T23:35:26.381Z,4.2
2018-10-03T23:36:33.587Z,4.3
2018-10-03T23:37:40.821Z,4.2
2018-10-03T23:38:47.517Z,4.2
2018-10-03T23:39:54.736Z,4.2
2018-10-03T23:41:01.970Z,4.2
2018-10-03T23:42:09.426Z,4.1
2018-10-03T23:43:16.752Z,4.1
2018-10-03T23:44:24.199Z,4.1
2018-10-03T23:45:31.412Z,4.1
2018-10-03T23:46:38.829Z,4.1
2018-10-03T23:47:46.053Z,4.1
2018-10-03T23:48:53.273Z,4.1
2018-10-03T23:50:00.503Z,4.1
2018-10-03T23:51:07.735Z,4.1
2018-10-03T23:52:14.952Z,4
2018-10-03T23:53:22.184Z,3.9
2018-10-03T23:54:29.393Z,3.9
2018-10-03T23:55:36.832Z,3.9
2018-10-03T23:56:44.042Z,3.9
2018-10-03T23:57:51.489Z,3.8
2018-10-03T23:58:58.696Z,3.8
